Time;durP1;ratioP1;P1;durP2;ratioP2;P2;SDS_P1;SDS_P2;PMS_P1;PMS_P2;Temp;Humidity;BMP_temperature;BMP_pressure;BME280_temperature;BME280_humidity;BME280_pressure;Samples;Min_cycle;Max_cycle;Signal;HPM_P1;HPM_P2
2021/05/29 00:00:40;;;;;;;;;;;;;;;;;;1478707;40;7047;-65
2021/05/29 00:01:42;;;;;;;;;;;;;;;;;;1482657;40;7076;-64
2021/05/29 00:02:45;;;;;;;;;;;;;;;;;;1481489;40;7011;-65
2021/05/29 00:03:49;;;;;;;;;;;;;;;;;;1478928;40;7864;-66
2021/05/29 00:04:51;;;;;;;;;;;;;;;;;;1481042;40;7000;-66
2021/05/29 00:05:54;;;;;;;;;;;;;;;;;;1483884;40;8775;-64
2021/05/29 00:06:56;;;;;;;;;;;;;;;;;;1482433;40;7052;-67
2021/05/29 00:07:59;;;;;;;;;;;;;;;;;;1479257;40;7913;-64
2021/05/29 00:09:01;;;;;;;;;;;;;;;;;;1478743;40;7052;-64
2021/05/29 00:10:04;;;;;;;;;;;;;;;;;;1479199;40;7028;-62
2021/05/29 00:11:08;;;;;;;;;;;;;;;;;;1478845;40;7273;-66
2021/05/29 00:12:11;;;;;;;;;;;;;;;;;;1478896;40;7882;-67
2021/05/29 00:13:14;;;;;;;;;;;;;;;;;;1478612;40;7031;-64
2021/05/29 00:14:16;;;;;;;;;;;;;;;;;;1478982;40;7035;-64
2021/05/29 00:15:18;;;;;;;;;;;;;;;;;;1478704;40;7866;-66
2021/05/29 00:16:21;;;;;;;;;;;;;;;;;;1479033;40;6999;-64
2021/05/29 00:17:24;;;;;;;;;;;;;;;;;;1481890;40;7009;-66
2021/05/29 00:18:26;;;;;;;;;;;;;;;;;;1480976;40;7908;-65
2021/05/29 00:19:29;;;;;;;;;;;;;;;;;;1477897;40;7044;-65
2021/05/29 00:20:32;;;;;;;;;;;;;;;;;;1480128;40;7043;-64
2021/05/29 00:21:34;;;;;;;;;;;;;;;;;;1480162;40;7153;-66
2021/05/29 00:22:37;;;;;;;;;;;;;;;;;;1482245;40;7964;-66
2021/05/29 00:23:40;;;;;;;;;;;;;;;;;;1478273;40;7890;-63
2021/05/29 00:24:42;;;;;;;;;;;;;;;;;;1478432;40;7535;-68
2021/05/29 00:25:45;;;;;;;;;;;;;;;;;;1478265;40;7107;-67
2021/05/29 00:26:47;;;;;;;;;;;;;;;;;;1480169;40;7891;-64
2021/05/29 00:27:50;;;;;;;;;;;;;;;;;;1482184;40;7003;-66
2021/05/29 00:28:52;;;;;;;;;;;;;;;;;;1482799;40;7003;-64
2021/05/29 00:29:55;;;;;;;;;;;;;;;;;;1482830;40;7031;-64
2021/05/29 00:30:57;;;;;;;;;;;;;;;;;;1482889;40;7023;-61
2021/05/29 00:32:00;;;;;;;;;;;;;;;;;;1482456;40;7003;-66
2021/05/29 00:33:02;;;;;;;;;;;;;;;;;;1482616;40;7051;-65
2021/05/29 00:34:05;;;;;;;;;;;;;;;;;;1478705;40;7035;-62
2021/05/29 00:35:08;;;;;;;;;;;;;;;;;;1478728;40;7242;-64
2021/05/29 00:36:11;;;;;;;;;;;;;;;;;;1477878;40;7044;-63
2021/05/29 00:37:13;;;;;;;;;;;;;;;;;;1478454;40;7007;-64
2021/05/29 00:38:15;;;;;;;;;;;;;;;;;;1478467;40;7023;-65
2021/05/29 00:39:18;;;;;;;;;;;;;;;;;;1479272;40;7031;-64
2021/05/29 00:40:20;;;;;;;;;;;;;;;;;;1478396;40;7978;-63
2021/05/29 00:41:23;;;;;;;;;;;;;;;;;;1479220;40;7024;-64
2021/05/29 00:42:25;;;;;;;;;;;;;;;;;;1478847;40;7227;-65
2021/05/29 00:43:28;;;;;;;;;;;;;;;;;;1478237;40;7007;-64
2021/05/29 00:45:05;;;;;;;;;;;;;;;;;;1478628;40;7016;-69
2021/05/29 00:46:08;;;;;;;;;;;;;;;;;;1477818;40;7110;-63
2021/05/29 00:47:11;;;;;;;;;;;;;;;;;;1477842;40;7971;-66
2021/05/29 00:48:13;;;;;;;;;;;;;;;;;;1477849;40;7003;-68
2021/05/29 00:49:16;;;;;;;;;;;;;;;;;;1478711;40;7003;-65
2021/05/29 00:50:18;;;;;;;;;;;;;;;;;;1478830;40;7989;-63
2021/05/29 00:51:21;;;;;;;;;;;;;;;;;;1479575;40;7054;-64
2021/05/29 00:52:24;;;;;;;;;;;;;;;;;;1482852;40;7031;-64
2021/05/29 00:53:27;;;;;;;;;;;;;;;;;;1483183;40;7943;-64
2021/05/29 00:54:30;;;;;;;;;;;;;;;;;;1483488;40;7893;-64
2021/05/29 00:55:33;;;;;;;;;;;;;;;;;;1483728;40;7194;-64
2021/05/29 00:56:35;;;;;;;;;;;;;;;;;;1483378;40;7136;-65
2021/05/29 00:57:42;;;;;;;;;;;;;;;;;;1478920;40;7047;-67
2021/05/29 00:58:44;;;;;;;;;;;;;;;;;;1479430;40;7004;-64
2021/05/29 00:59:47;;;;;;;;;;;;;;;;;;1479129;40;7003;-64
2021/05/29 01:00:50;;;;;;;;;;;;;;;;;;1479012;40;7035;-63
2021/05/29 01:01:53;;;;;;;;;;;;;;;;;;1478872;40;7143;-65
2021/05/29 01:02:55;;;;;;;;;;;;;;;;;;1479107;40;7007;-64
2021/05/29 01:03:57;;;;;;;;;;;;;;;;;;1479225;40;7031;-65
2021/05/29 01:05:00;;;;;;;;;;;;;;;;;;1479233;40;7058;-63
2021/05/29 01:06:04;;;;;;;;;;;;;;;;;;1479424;40;7083;-69
2021/05/29 01:07:11;;;;;;;;;;;;;;;;;;1479180;40;7000;-64
2021/05/29 01:08:14;;;;;;;;;;;;;;;;;;1482898;39;7037;-62
2021/05/29 01:09:16;;;;;;;;;;;;;;;;;;1483672;40;7011;-64
2021/05/29 01:10:20;;;;;;;;;;;;;;;;;;1483607;40;7931;-68
2021/05/29 01:11:22;;;;;;;;;;;;;;;;;;1482264;40;6999;-66
2021/05/29 01:12:25;;;;;;;;;;;;;;;;;;1478211;40;7115;-65
2021/05/29 01:13:33;;;;;;;;;;;;;;;;;;1478722;40;7080;-64
2021/05/29 01:14:38;;;;;;;;;;;;;;;;;;1479374;40;7014;-66
2021/05/29 01:15:43;;;;;;;;;;;;;;;;;;1479376;40;7039;-68
2021/05/29 01:16:56;;;;;;;;;;;;;;;;;;1479599;40;7762;-66
2021/05/29 01:17:59;;;;;;;;;;;;;;;;;;1481471;40;8497;-66
2021/05/29 01:19:01;;;;;;;;;;;;;;;;;;1481432;40;7054;-67
2021/05/29 01:20:05;;;;;;;;;;;;;;;;;;1478890;40;7035;-65
2021/05/29 01:21:07;;;;;;;;;;;;;;;;;;1478974;40;7031;-68
2021/05/29 01:22:10;;;;;;;;;;;;;;;;;;1478646;40;7048;-67
2021/05/29 01:23:14;;;;;;;;;;;;;;;;;;1478811;40;7017;-61
2021/05/29 01:24:21;;;;;;;;;;;;;;;;;;1478810;40;7012;-63
2021/05/29 01:25:29;;;;;;;;;;;;;;;;;;1478694;40;7970;-66
2021/05/29 01:26:31;;;;;;;;;;;;;;;;;;1479159;40;7035;-65
2021/05/29 01:27:34;;;;;;;;;;;;;;;;;;1478635;40;7050;-64
2021/05/29 01:28:36;;;;;;;;;;;;;;;;;;1478789;40;7015;-66
2021/05/29 01:29:38;;;;;;;;;;;;;;;;;;1478879;40;7035;-62
2021/05/29 01:30:47;;;;;;;;;;;;;;;;;;1478791;40;7016;-62
2021/05/29 01:31:59;;;;;;;;;;;;;;;;;;1479280;40;7030;-63
2021/05/29 01:33:02;;;;;;;;;;;;;;;;;;1478909;40;7016;-67
2021/05/29 01:34:05;;;;;;;;;;;;;;;;;;1479198;40;7035;-69
2021/05/29 01:35:10;;;;;;;;;;;;;;;;;;1479225;40;7039;-64
2021/05/29 01:36:12;;;;;;;;;;;;;;;;;;1478263;40;7644;-65
2021/05/29 01:37:15;;;;;;;;;;;;;;;;;;1478795;40;7031;-66
2021/05/29 01:38:19;;;;;;;;;;;;;;;;;;1479388;40;7958;-65
2021/05/29 01:39:22;;;;;;;;;;;;;;;;;;1479352;40;7003;-67
2021/05/29 01:40:24;;;;;;;;;;;;;;;;;;1479053;40;7003;-65
2021/05/29 01:41:26;;;;;;;;;;;;;;;;;;1479168;40;7004;-64
2021/05/29 01:42:30;;;;;;;;;;;;;;;;;;1479214;40;7003;-66
2021/05/29 01:43:36;;;;;;;;;;;;;;;;;;1479217;40;7007;-64
2021/05/29 01:44:39;;;;;;;;;;;;;;;;;;1479053;40;7047;-65
2021/05/29 01:45:43;;;;;;;;;;;;;;;;;;1479290;40;7895;-65
2021/05/29 01:46:45;;;;;;;;;;;;;;;;;;1478878;40;7034;-66
2021/05/29 01:47:48;;;;;;;;;;;;;;;;;;1479183;40;7008;-66
2021/05/29 01:48:51;;;;;;;;;;;;;;;;;;1479354;40;6999;-66
2021/05/29 01:49:54;;;;;;;;;;;;;;;;;;1479173;40;7035;-64
2021/05/29 01:50:58;;;;;;;;;;;;;;;;;;1479378;40;7195;-63
2021/05/29 01:52:00;;;;;;;;;;;;;;;;;;1479489;40;6999;-66
2021/05/29 01:53:04;;;;;;;;;;;;;;;;;;1478580;40;7911;-66
2021/05/29 01:54:06;;;;;;;;;;;;;;;;;;1479391;40;7003;-62
2021/05/29 01:55:09;;;;;;;;;;;;;;;;;;1479266;40;7118;-64
2021/05/29 01:56:12;;;;;;;;;;;;;;;;;;1479351;40;6999;-64
2021/05/29 01:57:15;;;;;;;;;;;;;;;;;;1480197;40;8001;-66
2021/05/29 01:58:18;;;;;;;;;;;;;;;;;;1483386;40;7039;-67
2021/05/29 01:59:20;;;;;;;;;;;;;;;;;;1483020;40;7918;-68
2021/05/29 02:00:24;;;;;;;;;;;;;;;;;;1483381;40;7202;-63
2021/05/29 02:01:27;;;;;;;;;;;;;;;;;;1483127;40;6999;-62
2021/05/29 02:02:29;;;;;;;;;;;;;;;;;;1483283;40;6999;-64
2021/05/29 02:03:32;;;;;;;;;;;;;;;;;;1483398;40;6999;-65
2021/05/29 02:04:34;;;;;;;;;;;;;;;;;;1482605;40;7035;-63
2021/05/29 02:05:37;;;;;;;;;;;;;;;;;;1482690;40;7908;-64
2021/05/29 02:06:39;;;;;;;;;;;;;;;;;;1479326;40;7031;-63
2021/05/29 02:07:43;;;;;;;;;;;;;;;;;;1482255;40;7786;-65
2021/05/29 02:08:45;;;;;;;;;;;;;;;;;;1482784;40;7003;-64
2021/05/29 02:09:47;;;;;;;;;;;;;;;;;;1478992;40;7110;-63
2021/05/29 02:10:50;;;;;;;;;;;;;;;;;;1479133;40;8061;-66
2021/05/29 02:11:53;;;;;;;;;;;;;;;;;;1479510;39;7117;-66
2021/05/29 02:12:57;;;;;;;;;;;;;;;;;;1479335;40;8303;-64
2021/05/29 02:14:00;;;;;;;;;;;;;;;;;;1479332;40;7084;-63
2021/05/29 02:15:03;;;;;;;;;;;;;;;;;;1479258;40;7008;-66
2021/05/29 02:16:06;;;;;;;;;;;;;;;;;;1479251;40;6999;-63
2021/05/29 02:17:09;;;;;;;;;;;;;;;;;;1478551;40;7012;-65
2021/05/29 02:18:11;;;;;;;;;;;;;;;;;;1482262;40;7043;-63
2021/05/29 02:19:13;;;;;;;;;;;;;;;;;;1481313;40;7011;-63
2021/05/29 02:20:18;;;;;;;;;;;;;;;;;;1480778;40;7043;-66
2021/05/29 02:21:20;;;;;;;;;;;;;;;;;;1483134;40;7003;-62
2021/05/29 02:22:22;;;;;;;;;;;;;;;;;;1483258;40;6999;-63
2021/05/29 02:23:29;;;;;;;;;;;;;;;;;;1479406;40;7922;-65
2021/05/29 02:24:32;;;;;;;;;;;;;;;;;;1481972;40;8142;-63
2021/05/29 02:25:35;;;;;;;;;;;;;;;;;;1485367;40;7003;-64
2021/05/29 02:26:37;;;;;;;;;;;;;;;;;;1482677;40;7000;-64
2021/05/29 02:27:39;;;;;;;;;;;;;;;;;;1482587;40;8047;-64
2021/05/29 02:28:43;;;;;;;;;;;;;;;;;;1482997;40;6984;-66
2021/05/29 02:29:46;;;;;;;;;;;;;;;;;;1483139;40;7219;-64
2021/05/29 02:30:50;;;;;;;;;;;;;;;;;;1480574;40;7087;-66
2021/05/29 02:31:52;;;;;;;;;;;;;;;;;;1479302;40;7865;-63
2021/05/29 02:32:55;;;;;;;;;;;;;;;;;;1483258;40;7019;-63
2021/05/29 02:33:57;;;;;;;;;;;;;;;;;;1483187;40;7051;-67
2021/05/29 02:34:59;;;;;;;;;;;;;;;;;;1478944;40;7047;-62
2021/05/29 02:36:03;;;;;;;;;;;;;;;;;;1478956;40;6999;-65
2021/05/29 02:37:06;;;;;;;;;;;;;;;;;;1478623;40;7016;-65
2021/05/29 02:38:08;;;;;;;;;;;;;;;;;;1479163;40;8094;-62
2021/05/29 02:39:10;;;;;;;;;;;;;;;;;;1479290;40;7983;-67
2021/05/29 02:40:13;;;;;;;;;;;;;;;;;;1479362;40;7012;-65
2021/05/29 02:41:16;;;;;;;;;;;;;;;;;;1479427;40;6999;-64
2021/05/29 02:42:19;;;;;;;;;;;;;;;;;;1479392;40;7941;-63
2021/05/29 02:43:21;;;;;;;;;;;;;;;;;;1479130;40;7048;-63
2021/05/29 02:44:25;;;;;;;;;;;;;;;;;;1479036;40;7011;-65
2021/05/29 02:45:27;;;;;;;;;;;;;;;;;;1478930;40;7003;-65
2021/05/29 02:46:30;;;;;;;;;;;;;;;;;;1479171;40;7008;-63
2021/05/29 02:47:32;;;;;;;;;;;;;;;;;;1479324;40;7239;-64
2021/05/29 02:48:35;;;;;;;;;;;;;;;;;;1479374;40;7035;-67
2021/05/29 02:49:37;;;;;;;;;;;;;;;;;;1479357;40;7003;-65
2021/05/29 02:50:41;;;;;;;;;;;;;;;;;;1478795;40;7905;-62
2021/05/29 02:51:44;;;;;;;;;;;;;;;;;;1479422;40;7027;-64
2021/05/29 02:52:46;;;;;;;;;;;;;;;;;;1478896;40;7048;-66
2021/05/29 02:53:49;;;;;;;;;;;;;;;;;;1479094;40;7012;-63
2021/05/29 02:54:51;;;;;;;;;;;;;;;;;;1479087;40;7043;-63
2021/05/29 02:55:54;;;;;;;;;;;;;;;;;;1479144;40;7012;-65
2021/05/29 02:56:56;;;;;;;;;;;;;;;;;;1478960;40;7039;-63
2021/05/29 02:57:59;;;;;;;;;;;;;;;;;;1478937;40;7008;-63
2021/05/29 02:59:02;;;;;;;;;;;;;;;;;;1479261;40;7121;-62
2021/05/29 03:00:06;;;;;;;;;;;;;;;;;;1478147;40;7911;-64
2021/05/29 03:01:09;;;;;;;;;;;;;;;;;;1478309;40;7012;-63
2021/05/29 03:02:11;;;;;;;;;;;;;;;;;;1479245;40;7994;-65
2021/05/29 03:03:14;;;;;;;;;;;;;;;;;;1478898;40;7758;-66
2021/05/29 03:04:17;;;;;;;;;;;;;;;;;;1479088;40;7000;-64
2021/05/29 03:05:19;;;;;;;;;;;;;;;;;;1478548;40;7003;-64
2021/05/29 03:06:21;;;;;;;;;;;;;;;;;;1478520;40;7564;-65
2021/05/29 03:07:24;;;;;;;;;;;;;;;;;;1479037;40;7818;-66
2021/05/29 03:08:26;;;;;;;;;;;;;;;;;;1479030;40;7892;-66
2021/05/29 03:09:28;;;;;;;;;;;;;;;;;;1479379;40;6999;-65
2021/05/29 03:10:32;;;;;;;;;;;;;;;;;;1478535;40;7963;-65
2021/05/29 03:11:41;;;;;;;;;;;;;;;;;;1483291;40;7003;-65
2021/05/29 03:12:44;;;;;;;;;;;;;;;;;;1481850;40;7039;-65
2021/05/29 03:13:47;;;;;;;;;;;;;;;;;;1479106;40;7266;-64
2021/05/29 03:14:50;;;;;;;;;;;;;;;;;;1479024;40;7051;-63
2021/05/29 03:15:52;;;;;;;;;;;;;;;;;;1479009;40;6999;-65
2021/05/29 03:16:55;;;;;;;;;;;;;;;;;;1478579;40;7874;-65
2021/05/29 03:17:58;;;;;;;;;;;;;;;;;;1481393;40;7043;-63
2021/05/29 03:19:01;;;;;;;;;;;;;;;;;;1479579;40;7112;-66
2021/05/29 03:20:05;;;;;;;;;;;;;;;;;;1482923;40;6999;-65
2021/05/29 03:21:07;;;;;;;;;;;;;;;;;;1481443;40;7734;-65
2021/05/29 03:22:10;;;;;;;;;;;;;;;;;;1483246;40;7039;-63
2021/05/29 03:23:12;;;;;;;;;;;;;;;;;;1480487;40;7975;-65
2021/05/29 03:24:14;;;;;;;;;;;;;;;;;;1478988;40;7043;-64
2021/05/29 03:25:17;;;;;;;;;;;;;;;;;;1482558;40;7120;-63
2021/05/29 03:26:19;;;;;;;;;;;;;;;;;;1478682;40;7203;-68
2021/05/29 03:27:22;;;;;;;;;;;;;;;;;;1481312;40;7035;-65
2021/05/29 03:28:24;;;;;;;;;;;;;;;;;;1482917;40;7256;-65
2021/05/29 03:29:27;;;;;;;;;;;;;;;;;;1482801;40;7007;-66
2021/05/29 03:30:29;;;;;;;;;;;;;;;;;;1482170;40;7048;-65
2021/05/29 03:31:33;;;;;;;;;;;;;;;;;;1478998;40;7007;-64
2021/05/29 03:32:36;;;;;;;;;;;;;;;;;;1479107;40;7020;-65
2021/05/29 03:33:39;;;;;;;;;;;;;;;;;;1477170;40;7043;-64
2021/05/29 03:34:41;;;;;;;;;;;;;;;;;;1478633;40;7016;-65
2021/05/29 03:35:44;;;;;;;;;;;;;;;;;;1486474;40;7003;-65
2021/05/29 03:36:46;;;;;;;;;;;;;;;;;;1485830;40;7051;-64
2021/05/29 03:37:49;;;;;;;;;;;;;;;;;;1483172;40;7003;-65
2021/05/29 03:38:52;;;;;;;;;;;;;;;;;;1483528;40;7008;-67
2021/05/29 03:39:54;;;;;;;;;;;;;;;;;;1483170;40;7052;-64
2021/05/29 03:40:56;;;;;;;;;;;;;;;;;;1483490;40;7003;-65
2021/05/29 03:41:59;;;;;;;;;;;;;;;;;;1479902;40;7000;-67
2021/05/29 03:43:01;;;;;;;;;;;;;;;;;;1478793;40;7195;-64
2021/05/29 03:44:04;;;;;;;;;;;;;;;;;;1478841;40;7008;-66
2021/05/29 03:45:12;;;;;;;;;;;;;;;;;;1478938;40;7035;-64
2021/05/29 03:46:14;;;;;;;;;;;;;;;;;;1479346;40;7019;-64
2021/05/29 03:47:17;;;;;;;;;;;;;;;;;;1480767;40;7569;-66
2021/05/29 03:48:19;;;;;;;;;;;;;;;;;;1483077;40;7035;-64
2021/05/29 03:49:21;;;;;;;;;;;;;;;;;;1482979;40;7020;-67
2021/05/29 03:50:25;;;;;;;;;;;;;;;;;;1482936;40;7865;-65
2021/05/29 03:51:28;;;;;;;;;;;;;;;;;;1482787;40;7003;-65
2021/05/29 03:52:30;;;;;;;;;;;;;;;;;;1483351;40;7210;-65
2021/05/29 03:53:32;;;;;;;;;;;;;;;;;;1478716;40;7912;-66
2021/05/29 03:54:35;;;;;;;;;;;;;;;;;;1479434;40;7115;-63
2021/05/29 03:55:38;;;;;;;;;;;;;;;;;;1479008;40;7120;-64
2021/05/29 03:56:41;;;;;;;;;;;;;;;;;;1478733;40;7044;-66
2021/05/29 03:57:44;;;;;;;;;;;;;;;;;;1478708;40;6999;-65
2021/05/29 03:58:46;;;;;;;;;;;;;;;;;;1478918;40;7017;-66
2021/05/29 03:59:49;;;;;;;;;;;;;;;;;;1479011;40;7031;-65
2021/05/29 04:00:51;;;;;;;;;;;;;;;;;;1478960;40;7003;-64
2021/05/29 04:01:53;;;;;;;;;;;;;;;;;;1479017;40;7992;-63
2021/05/29 04:02:56;;;;;;;;;;;;;;;;;;1479193;40;7043;-64
2021/05/29 04:03:59;;;;;;;;;;;;;;;;;;1479241;40;7047;-65
2021/05/29 04:05:03;;;;;;;;;;;;;;;;;;1478951;40;7008;-65
2021/05/29 04:06:05;;;;;;;;;;;;;;;;;;1478852;40;9248;-64
2021/05/29 04:07:07;;;;;;;;;;;;;;;;;;1478819;40;7120;-64
2021/05/29 04:08:10;;;;;;;;;;;;;;;;;;1478855;40;7907;-64
2021/05/29 04:09:12;;;;;;;;;;;;;;;;;;1478677;40;7076;-64
2021/05/29 04:10:16;;;;;;;;;;;;;;;;;;1478976;40;7039;-63
2021/05/29 04:11:21;;;;;;;;;;;;;;;;;;1478462;40;7935;-67
2021/05/29 04:12:24;;;;;;;;;;;;;;;;;;1478763;40;7145;-63
2021/05/29 04:13:26;;;;;;;;;;;;;;;;;;1478844;40;7008;-65
2021/05/29 04:14:28;;;;;;;;;;;;;;;;;;1478942;40;7198;-64
2021/05/29 04:15:31;;;;;;;;;;;;;;;;;;1478939;40;7926;-61
2021/05/29 04:16:33;;;;;;;;;;;;;;;;;;1479022;40;7925;-66
2021/05/29 04:17:36;;;;;;;;;;;;;;;;;;1478422;40;7931;-62
2021/05/29 04:18:38;;;;;;;;;;;;;;;;;;1478424;40;7031;-66
2021/05/29 04:19:41;;;;;;;;;;;;;;;;;;1481380;40;7904;-65
2021/05/29 04:20:43;;;;;;;;;;;;;;;;;;1482497;40;7927;-64
2021/05/29 04:21:46;;;;;;;;;;;;;;;;;;1480049;40;7035;-67
2021/05/29 04:22:48;;;;;;;;;;;;;;;;;;1478539;40;6999;-65
2021/05/29 04:23:51;;;;;;;;;;;;;;;;;;1478417;40;8051;-64
2021/05/29 04:24:53;;;;;;;;;;;;;;;;;;1478405;40;7918;-64
2021/05/29 04:25:56;;;;;;;;;;;;;;;;;;1478821;40;8326;-64
2021/05/29 04:26:59;;;;;;;;;;;;;;;;;;1478384;40;7007;-65
2021/05/29 04:28:02;;;;;;;;;;;;;;;;;;1479193;40;7923;-67
2021/05/29 04:29:04;;;;;;;;;;;;;;;;;;1479031;40;7011;-64
2021/05/29 04:30:09;;;;;;;;;;;;;;;;;;1479138;40;7011;-64
2021/05/29 04:31:12;;;;;;;;;;;;;;;;;;1478821;40;7012;-64
2021/05/29 04:32:14;;;;;;;;;;;;;;;;;;1479284;40;7027;-65
2021/05/29 04:33:17;;;;;;;;;;;;;;;;;;1479225;40;7011;-65
2021/05/29 04:34:19;;;;;;;;;;;;;;;;;;1479499;40;7003;-64
2021/05/29 04:35:22;;;;;;;;;;;;;;;;;;1479317;40;7003;-64
2021/05/29 04:36:25;;;;;;;;;;;;;;;;;;1481620;40;7007;-67
2021/05/29 04:37:27;;;;;;;;;;;;;;;;;;1482063;40;8307;-67
2021/05/29 04:38:29;;;;;;;;;;;;;;;;;;1479553;40;7007;-65
2021/05/29 04:39:32;;;;;;;;;;;;;;;;;;1479422;40;7031;-65
2021/05/29 04:40:35;;;;;;;;;;;;;;;;;;1479602;40;7114;-64
2021/05/29 04:41:37;;;;;;;;;;;;;;;;;;1479313;40;7923;-63
2021/05/29 04:42:40;;;;;;;;;;;;;;;;;;1479909;40;7020;-67
2021/05/29 04:43:43;;;;;;;;;;;;;;;;;;1479380;40;7908;-64
2021/05/29 04:44:45;;;;;;;;;;;;;;;;;;1479904;40;7962;-64
2021/05/29 04:45:48;;;;;;;;;;;;;;;;;;1479517;40;7925;-66
2021/05/29 04:46:53;;;;;;;;;;;;;;;;;;1480529;40;7035;-64
2021/05/29 04:47:56;;;;;;;;;;;;;;;;;;1479205;40;6999;-62
2021/05/29 04:48:58;;;;;;;;;;;;;;;;;;1479488;40;7139;-64
2021/05/29 04:50:01;;;;;;;;;;;;;;;;;;1478905;40;7035;-64
2021/05/29 04:51:14;;;;;;;;;;;;;;;;;;1479256;40;7047;-63
2021/05/29 04:52:16;;;;;;;;;;;;;;;;;;1479110;40;7054;-64
2021/05/29 04:53:18;;;;;;;;;;;;;;;;;;1479653;40;7182;-63
2021/05/29 04:54:21;;;;;;;;;;;;;;;;;;1479665;40;7012;-62
2021/05/29 04:55:23;;;;;;;;;;;;;;;;;;1479771;40;7047;-65
2021/05/29 04:56:26;;;;;;;;;;;;;;;;;;1479953;40;7529;-67
2021/05/29 04:57:29;;;;;;;;;;;;;;;;;;1483732;40;7035;-65
2021/05/29 04:58:31;;;;;;;;;;;;;;;;;;1483471;40;7051;-67
2021/05/29 04:59:34;;;;;;;;;;;;;;;;;;1483526;40;7027;-64
2021/05/29 05:00:36;;;;;;;;;;;;;;;;;;1483248;40;8000;-66
2021/05/29 05:01:38;;;;;;;;;;;;;;;;;;1483618;40;7035;-64
2021/05/29 05:02:41;;;;;;;;;;;;;;;;;;1483579;40;7261;-67
2021/05/29 05:03:44;;;;;;;;;;;;;;;;;;1480222;40;7904;-63
2021/05/29 05:04:46;;;;;;;;;;;;;;;;;;1479638;40;7004;-66
2021/05/29 05:05:49;;;;;;;;;;;;;;;;;;1479030;40;7035;-67
2021/05/29 05:06:51;;;;;;;;;;;;;;;;;;1478957;40;7091;-64
2021/05/29 05:07:53;;;;;;;;;;;;;;;;;;1479190;40;7003;-65
2021/05/29 05:08:56;;;;;;;;;;;;;;;;;;1479190;40;7117;-64
2021/05/29 05:09:58;;;;;;;;;;;;;;;;;;1479501;40;7126;-63
2021/05/29 05:11:01;;;;;;;;;;;;;;;;;;1479461;40;7914;-65
2021/05/29 05:12:03;;;;;;;;;;;;;;;;;;1479170;40;7047;-62
2021/05/29 05:13:06;;;;;;;;;;;;;;;;;;1478725;40;7020;-63
2021/05/29 05:14:08;;;;;;;;;;;;;;;;;;1479301;40;7931;-64
2021/05/29 05:15:11;;;;;;;;;;;;;;;;;;1479126;40;7085;-64
2021/05/29 05:16:14;;;;;;;;;;;;;;;;;;1479179;40;7966;-65
2021/05/29 05:17:16;;;;;;;;;;;;;;;;;;1479429;40;7035;-64
2021/05/29 05:18:23;;;;;;;;;;;;;;;;;;1479352;40;7012;-64
2021/05/29 05:19:25;;;;;;;;;;;;;;;;;;1481302;40;7039;-66
2021/05/29 05:20:28;;;;;;;;;;;;;;;;;;1483295;40;6999;-63
2021/05/29 05:21:30;;;;;;;;;;;;;;;;;;1479450;40;7009;-65
2021/05/29 05:22:33;;;;;;;;;;;;;;;;;;1479311;39;7144;-64
2021/05/29 05:23:36;;;;;;;;;;;;;;;;;;1478781;40;7007;-68
2021/05/29 05:24:38;;;;;;;;;;;;;;;;;;1479386;40;7039;-65
2021/05/29 05:25:41;;;;;;;;;;;;;;;;;;1481436;40;9274;-64
2021/05/29 05:26:47;;;;;;;;;;;;;;;;;;1483433;40;7035;-65
2021/05/29 05:27:50;;;;;;;;;;;;;;;;;;1483049;40;7047;-63
2021/05/29 05:28:52;;;;;;;;;;;;;;;;;;1483296;40;8233;-65
2021/05/29 05:29:55;;;;;;;;;;;;;;;;;;1483023;40;7007;-66
2021/05/29 05:30:59;;;;;;;;;;;;;;;;;;1483191;40;7170;-65
2021/05/29 05:32:02;;;;;;;;;;;;;;;;;;1483076;40;7182;-63
2021/05/29 05:33:05;;;;;;;;;;;;;;;;;;1483218;40;7038;-67
2021/05/29 05:34:09;;;;;;;;;;;;;;;;;;1483348;40;7004;-65
2021/05/29 05:35:15;;;;;;;;;;;;;;;;;;1483339;40;7035;-65
2021/05/29 05:36:17;;;;;;;;;;;;;;;;;;1482547;40;7012;-65
2021/05/29 05:37:20;;;;;;;;;;;;;;;;;;1483043;40;7003;-65
2021/05/29 05:38:22;;;;;;;;;;;;;;;;;;1479604;40;7118;-66
2021/05/29 05:39:25;;;;;;;;;;;;;;;;;;1479446;40;7063;-64
2021/05/29 05:40:27;;;;;;;;;;;;;;;;;;1479696;40;7011;-64
2021/05/29 05:41:30;;;;;;;;;;;;;;;;;;1479662;40;7027;-63
2021/05/29 05:42:32;;;;;;;;;;;;;;;;;;1479613;40;7826;-65
2021/05/29 05:43:35;;;;;;;;;;;;;;;;;;1479494;40;7108;-65
2021/05/29 05:44:38;;;;;;;;;;;;;;;;;;1479439;40;7014;-62
2021/05/29 05:45:40;;;;;;;;;;;;;;;;;;1479265;40;7007;-66
2021/05/29 05:46:43;;;;;;;;;;;;;;;;;;1479380;40;7043;-65
2021/05/29 05:47:45;;;;;;;;;;;;;;;;;;1479497;40;7015;-66
2021/05/29 05:48:48;;;;;;;;;;;;;;;;;;1479364;40;7027;-67
2021/05/29 05:49:51;;;;;;;;;;;;;;;;;;1479487;40;7129;-63
2021/05/29 05:50:57;;;;;;;;;;;;;;;;;;1479528;40;7000;-66
2021/05/29 05:52:00;;;;;;;;;;;;;;;;;;1479501;40;8825;-65
2021/05/29 05:53:02;;;;;;;;;;;;;;;;;;1479480;40;7966;-63
2021/05/29 05:54:05;;;;;;;;;;;;;;;;;;1479308;40;7127;-64
2021/05/29 05:55:08;;;;;;;;;;;;;;;;;;1478707;40;7031;-63
2021/05/29 05:56:11;;;;;;;;;;;;;;;;;;1479276;40;7958;-65
2021/05/29 05:57:14;;;;;;;;;;;;;;;;;;1479462;40;7894;-64
2021/05/29 05:58:16;;;;;;;;;;;;;;;;;;1479217;40;6999;-63
2021/05/29 05:59:18;;;;;;;;;;;;;;;;;;1479065;40;7853;-64
2021/05/29 06:00:21;;;;;;;;;;;;;;;;;;1479561;40;7000;-67
2021/05/29 06:01:25;;;;;;;;;;;;;;;;;;1479034;40;7035;-66
2021/05/29 06:02:27;;;;;;;;;;;;;;;;;;1479739;40;7003;-64
2021/05/29 06:03:30;;;;;;;;;;;;;;;;;;1479477;40;7039;-66
2021/05/29 06:04:33;;;;;;;;;;;;;;;;;;1479192;40;7039;-64
2021/05/29 06:05:37;;;;;;;;;;;;;;;;;;1479552;40;7007;-65
2021/05/29 06:06:39;;;;;;;;;;;;;;;;;;1479952;40;7007;-63
2021/05/29 06:07:42;;;;;;;;;;;;;;;;;;1479655;40;7884;-64
2021/05/29 06:08:45;;;;;;;;;;;;;;;;;;1479415;40;7962;-63
2021/05/29 06:09:47;;;;;;;;;;;;;;;;;;1479019;40;7023;-65
2021/05/29 06:10:50;;;;;;;;;;;;;;;;;;1479405;40;7110;-63
2021/05/29 06:11:53;;;;;;;;;;;;;;;;;;1479379;40;7848;-67
2021/05/29 06:12:56;;;;;;;;;;;;;;;;;;1479317;40;7203;-65
2021/05/29 06:19:19;;;;;;;;;;;;;;;;;;1471208;40;7999;-65
2021/05/29 06:20:22;;;;;;;;;;;;;;;;;;1476848;40;7016;-64
2021/05/29 06:21:24;;;;;;;;;;;;;;;;;;1479335;40;7922;-68
2021/05/29 06:22:27;;;;;;;;;;;;;;;;;;1479112;40;7128;-65
2021/05/29 06:23:29;;;;;;;;;;;;;;;;;;1478687;40;7050;-62
2021/05/29 06:24:32;;;;;;;;;;;;;;;;;;1478931;40;7179;-65
2021/05/29 06:25:35;;;;;;;;;;;;;;;;;;1478981;40;7965;-64
2021/05/29 06:26:37;;;;;;;;;;;;;;;;;;1478816;40;7587;-63
2021/05/29 06:27:40;;;;;;;;;;;;;;;;;;1478829;40;7007;-64
2021/05/29 06:28:43;;;;;;;;;;;;;;;;;;1479003;40;7035;-64
2021/05/29 06:29:46;;;;;;;;;;;;;;;;;;1479123;40;7004;-64
2021/05/29 06:30:48;;;;;;;;;;;;;;;;;;1479485;40;7054;-64
2021/05/29 06:31:51;;;;;;;;;;;;;;;;;;1479059;40;7119;-66
2021/05/29 06:32:53;;;;;;;;;;;;;;;;;;1479162;40;7119;-66
2021/05/29 06:33:55;;;;;;;;;;;;;;;;;;1478923;40;6999;-63
2021/05/29 06:34:58;;;;;;;;;;;;;;;;;;1479301;40;6999;-64
2021/05/29 06:36:00;;;;;;;;;;;;;;;;;;1478487;40;7911;-65
2021/05/29 06:37:03;;;;;;;;;;;;;;;;;;1478540;40;7058;-66
2021/05/29 06:38:06;;;;;;;;;;;;;;;;;;1479748;40;6999;-67
2021/05/29 06:39:08;;;;;;;;;;;;;;;;;;1479628;40;7007;-65
2021/05/29 06:40:11;;;;;;;;;;;;;;;;;;1479542;40;7879;-65
2021/05/29 06:41:13;;;;;;;;;;;;;;;;;;1479062;40;7043;-65
2021/05/29 06:42:16;;;;;;;;;;;;;;;;;;1479261;40;7987;-65
2021/05/29 06:43:18;;;;;;;;;;;;;;;;;;1479235;40;7004;-66
2021/05/29 06:44:21;;;;;;;;;;;;;;;;;;1479285;40;8147;-66
2021/05/29 06:45:23;;;;;;;;;;;;;;;;;;1479556;40;7919;-67
2021/05/29 06:46:25;;;;;;;;;;;;;;;;;;1479372;40;7661;-65
2021/05/29 06:47:28;;;;;;;;;;;;;;;;;;1479705;40;7027;-66
2021/05/29 06:48:30;;;;;;;;;;;;;;;;;;1479499;40;7107;-67
2021/05/29 06:49:35;;;;;;;;;;;;;;;;;;1479315;40;7035;-63
2021/05/29 06:50:38;;;;;;;;;;;;;;;;;;1478992;40;7063;-67
2021/05/29 06:51:52;;;;;;;;;;;;;;;;;;1478811;40;7921;-67
2021/05/29 06:52:57;;;;;;;;;;;;;;;;;;1479380;40;7051;-66
2021/05/29 06:54:12;;;;;;;;;;;;;;;;;;1478715;40;8030;-65
2021/05/29 06:59:18;;;;;;;;;;;;;;;;;;1479163;40;7023;-66
2021/05/29 07:00:20;;;;;;;;;;;;;;;;;;1479265;40;7023;-66
2021/05/29 07:01:24;;;;;;;;;;;;;;;;;;1478760;40;7042;-63
2021/05/29 07:02:26;;;;;;;;;;;;;;;;;;1479215;40;6999;-65
2021/05/29 07:03:29;;;;;;;;;;;;;;;;;;1479029;40;8030;-66
2021/05/29 07:04:31;;;;;;;;;;;;;;;;;;1479355;40;7007;-66
2021/05/29 07:05:34;;;;;;;;;;;;;;;;;;1479463;40;7007;-67
2021/05/29 07:06:36;;;;;;;;;;;;;;;;;;1479451;40;7007;-65
2021/05/29 07:07:39;;;;;;;;;;;;;;;;;;1479542;40;7016;-65
2021/05/29 07:08:42;;;;;;;;;;;;;;;;;;1479627;40;7884;-66
2021/05/29 07:09:45;;;;;;;;;;;;;;;;;;1479096;40;7035;-65
2021/05/29 07:10:47;;;;;;;;;;;;;;;;;;1478972;40;7008;-65
2021/05/29 07:11:50;;;;;;;;;;;;;;;;;;1479060;40;7035;-66
2021/05/29 07:12:53;;;;;;;;;;;;;;;;;;1479294;40;7946;-67
2021/05/29 07:13:55;;;;;;;;;;;;;;;;;;1478955;40;7052;-67
2021/05/29 07:15:18;;;;;;;;;;;;;;;;;;1479179;40;7283;-66
2021/05/29 07:16:21;;;;;;;;;;;;;;;;;;1482343;40;7919;-63
2021/05/29 07:17:29;;;;;;;;;;;;;;;;;;1483167;40;7035;-63
2021/05/29 07:18:35;;;;;;;;;;;;;;;;;;1482871;40;7040;-65
2021/05/29 07:19:37;;;;;;;;;;;;;;;;;;1478715;40;7003;-63
2021/05/29 07:20:41;;;;;;;;;;;;;;;;;;1478765;40;7115;-63
2021/05/29 07:21:44;;;;;;;;;;;;;;;;;;1479777;40;7007;-65
2021/05/29 07:22:47;;;;;;;;;;;;;;;;;;1478651;40;8784;-65
2021/05/29 07:23:49;;;;;;;;;;;;;;;;;;1479715;40;7499;-67
2021/05/29 07:24:52;;;;;;;;;;;;;;;;;;1483104;40;7030;-65
2021/05/29 07:25:55;;;;;;;;;;;;;;;;;;1482174;40;7039;-64
2021/05/29 07:26:57;;;;;;;;;;;;;;;;;;1482978;40;7926;-67
2021/05/29 07:27:59;;;;;;;;;;;;;;;;;;1482492;40;7007;-66